Observation data for Reese Center on 02/21/2019      Previous  Date  Next       Current Mesonet Observations  Soil Data  Daily Summary Page  Observations in Plain Language
KREE 210600Z 18010KT 05/M10 A2983 RMK A01 T00481099  RH  034%=      5-min Rain = 0
KREE 210605Z 18011KT 05/M10 A2983 RMK A01 T00501096  RH  034%=      5-min Rain = 0
KREE 210610Z 18011KT 05/M09 A2983 RMK A01 T00531092  RH  035%=      5-min Rain = 0
KREE 210615Z 17011KT 05/M09 A2983 RMK A01 T00541088  RH  035%=      5-min Rain = 0
KREE 210620Z 17012KT 06/M09 A2983 RMK A01 T00561085  RH  036%=      5-min Rain = 0
KREE 210625Z 17012KT 06/M08 A2983 RMK A01 T00571082  RH  037%=      5-min Rain = 0
KREE 210630Z 17012KT 06/M08 A2983 RMK A01 T00561080  RH  037%=      5-min Rain = 0
KREE 210635Z 17012KT 06/M08 A2983 RMK A01 T00561080  RH  037%=      5-min Rain = 0
KREE 210640Z 17012KT 06/M08 A2983 RMK A01 T00551079  RH  038%=      5-min Rain = 0
KREE 210645Z 17012KT 06/M08 A2983 RMK A01 T00551079  RH  038%=      5-min Rain = 0
KREE 210650Z 17012KT 05/M08 A2983 RMK A01 T00531079  RH  038%=      5-min Rain = 0
KREE 210655Z 17012KT 05/M08 A2983 RMK A01 T00531078  RH  039%=      5-min Rain = 0
KREE 210700Z 17011KT 05/M08 A2983 RMK A01 T00521077  RH  039%=      5-min Rain = 0
KREE 210705Z 17011KT 05/M08 A2983 RMK A01 T00521076  RH  039%=      5-min Rain = 0
KREE 210710Z 17011KT 05/M08 A2982 RMK A01 T00521075  RH  040%=      5-min Rain = 0
KREE 210715Z 17011KT 05/M07 A2982 RMK A01 T00531073  RH  040%=      5-min Rain = 0
KREE 210720Z 17010KT 05/M07 A2982 RMK A01 T00531072  RH  040%=      5-min Rain = 0
KREE 210725Z 18011KT 05/M07 A2983 RMK A01 T00531071  RH  041%=      5-min Rain = 0
KREE 210730Z 18011KT 06/M07 A2983 RMK A01 T00561069  RH  041%=      5-min Rain = 0
KREE 210735Z 18012KT 06/M07 A2983 RMK A01 T00571067  RH  041%=      5-min Rain = 0
KREE 210740Z 18012KT 06/M07 A2983 RMK A01 T00581065  RH  041%=      5-min Rain = 0
KREE 210745Z 18013KT 06/M06 A2983 RMK A01 T00601063  RH  041%=      5-min Rain = 0
KREE 210750Z 18013KT 06/M06 A2983 RMK A01 T00601063  RH  041%=      5-min Rain = 0
KREE 210755Z 18013KT 06/M06 A2983 RMK A01 T00601062  RH  042%=      5-min Rain = 0
KREE 210800Z 18013KT 06/M06 A2983 RMK A01 T00611061  RH  042%=      5-min Rain = 0
KREE 210805Z 18013KT 06/M06 A2983 RMK A01 T00601061  RH  042%=      5-min Rain = 0
KREE 210810Z 19013KT 06/M06 A2983 RMK A01 T00601060  RH  042%=      5-min Rain = 0
KREE 210815Z 18013KT 06/M06 A2983 RMK A01 T00601060  RH  042%=      5-min Rain = 0
KREE 210820Z 18013KT 06/M06 A2983 RMK A01 T00601060  RH  042%=      5-min Rain = 0
KREE 210825Z 19014KT 06/M06 A2983 RMK A01 T00601059  RH  043%=      5-min Rain = 0
KREE 210830Z 19014KT 06/M06 A2983 RMK A01 T00611059  RH  042%=      5-min Rain = 0
KREE 210835Z 18014KT 06/M06 A2983 RMK A01 T00601059  RH  043%=      5-min Rain = 0
KREE 210840Z 18014KT 06/M06 A2983 RMK A01 T00611058  RH  043%=      5-min Rain = 0
KREE 210845Z 18015KT 06/M06 A2983 RMK A01 T00611058  RH  043%=      5-min Rain = 0
KREE 210850Z 18014KT 06/M06 A2983 RMK A01 T00611057  RH  043%=      5-min Rain = 0
KREE 210855Z 18013KT 06/M06 A2983 RMK A01 T00611056  RH  043%=      5-min Rain = 0
KREE 210900Z 18013KT 06/M06 A2983 RMK A01 T00601056  RH  044%=      5-min Rain = 0
KREE 210905Z 18012KT 06/M06 A2982 RMK A01 T00601055  RH  044%=      5-min Rain = 0
KREE 210910Z 18012KT 06/M05 A2983 RMK A01 T00601054  RH  044%=      5-min Rain = 0
KREE 210915Z 18012KT 06/M05 A2983 RMK A01 T00601053  RH  044%=      5-min Rain = 0
KREE 210920Z 18012KT 06/M05 A2982 RMK A01 T00601053  RH  045%=      5-min Rain = 0
KREE 210925Z 18012KT 06/M05 A2983 RMK A01 T00601052  RH  045%=      5-min Rain = 0
KREE 210930Z 18012KT 06/M05 A2983 RMK A01 T00611051  RH  045%=      5-min Rain = 0
KREE 210935Z 18013KT 06/M05 A2983 RMK A01 T00621051  RH  045%=      5-min Rain = 0
KREE 210940Z 18012KT 06/M05 A2983 RMK A01 T00621051  RH  045%=      5-min Rain = 0
KREE 210945Z 19013KT 06/M05 A2983 RMK A01 T00631051  RH  045%=      5-min Rain = 0
KREE 210950Z 18012KT 06/M05 A2983 RMK A01 T00631050  RH  045%=      5-min Rain = 0
KREE 210955Z 18012KT 06/M05 A2983 RMK A01 T00621050  RH  045%=      5-min Rain = 0
KREE 211000Z 18011KT 06/M05 A2982 RMK A01 T00621050  RH  045%=      5-min Rain = 0
KREE 211005Z 18012KT 06/M05 A2982 RMK A01 T00611051  RH  045%=      5-min Rain = 0
KREE 211010Z 18012KT 06/M05 A2982 RMK A01 T00611051  RH  045%=      5-min Rain = 0
KREE 211015Z 18011KT 06/M05 A2982 RMK A01 T00591051  RH  045%=      5-min Rain = 0
KREE 211020Z 18011KT 06/M05 A2982 RMK A01 T00591051  RH  046%=      5-min Rain = 0
KREE 211025Z 18010KT 06/M05 A2982 RMK A01 T00571051  RH  046%=      5-min Rain = 0
KREE 211030Z 18009KT 06/M05 A2982 RMK A01 T00561051  RH  046%=      5-min Rain = 0
KREE 211035Z 17009G14KT 06/M05 A2981 RMK A01 T00561051  RH  047%=      5-min Rain = 0
KREE 211040Z 17009KT 05/M05 A2981 RMK A01 T00541051  RH  047%=      5-min Rain = 0
KREE 211045Z 16009KT 05/M05 A2981 RMK A01 T00531051  RH  047%=      5-min Rain = 0
KREE 211050Z 16008KT 05/M05 A298 RMK A01 T00521052  RH  047%=      5-min Rain = 0
KREE 211055Z 16008KT 05/M05 A298 RMK A01 T00521052  RH  048%=      5-min Rain = 0
KREE 211100Z 17008KT 05/M05 A2981 RMK A01 T00511052  RH  048%=      5-min Rain = 0
KREE 211105Z 18008KT 05/M05 A2981 RMK A01 T00511052  RH  048%=      5-min Rain = 0
KREE 211110Z 18007KT 05/M05 A2981 RMK A01 T00501052  RH  048%=      5-min Rain = 0
KREE 211115Z 18007KT 05/M05 A2981 RMK A01 T00491053  RH  048%=      5-min Rain = 0
KREE 211120Z 18006KT 05/M05 A2981 RMK A01 T00481052  RH  049%=      5-min Rain = 0
KREE 211125Z 17007KT 05/M05 A2981 RMK A01 T00471052  RH  049%=      5-min Rain = 0
KREE 211130Z 16007KT 05/M05 A2981 RMK A01 T00451052  RH  050%=      5-min Rain = 0
KREE 211135Z 16007KT 05/M05 A2982 RMK A01 T00451053  RH  050%=      5-min Rain = 0
KREE 211140Z 15008KT 05/M05 A2982 RMK A01 T00461053  RH  049%=      5-min Rain = 0
KREE 211145Z 14008KT 05/M05 A2982 RMK A01 T00451053  RH  050%=      5-min Rain = 0
KREE 211150Z 14006KT 05/M05 A2982 RMK A01 T00461053  RH  049%=      5-min Rain = 0
KREE 211155Z 14008KT 05/M05 A2982 RMK A01 T00461053  RH  049%=      5-min Rain = 0
KREE 211200Z 15008KT 05/M05 A2982 RMK A01 T00461054  RH  049%=      5-min Rain = 0
KREE 211205Z 14008KT 05/M05 A2981 RMK A01 T00461054  RH  049%=      5-min Rain = 0
KREE 211210Z 15008KT 05/M05 A2981 RMK A01 T00461054  RH  049%=      5-min Rain = 0
KREE 211215Z 15008KT 05/M05 A298 RMK A01 T00471053  RH  049%=      5-min Rain = 0
KREE 211220Z 13011KT 05/M05 A298 RMK A01 T00481052  RH  049%=      5-min Rain = 0
KREE 211225Z 13012KT 05/M05 A2979 RMK A01 T00511051  RH  048%=      5-min Rain = 0
KREE 211230Z 13014KT 05/M05 A2979 RMK A01 T00521050  RH  048%=      5-min Rain = 0
KREE 211235Z 13012G17KT 05/M05 A2979 RMK A01 T00531050  RH  048%=      5-min Rain = 0
KREE 211240Z 16008KT 05/M05 A2981 RMK A01 T00541049  RH  048%=      5-min Rain = 0
KREE 211245Z 15008KT 05/M05 A298 RMK A01 T00541049  RH  048%=      5-min Rain = 0
KREE 211250Z 15008KT 05/M05 A298 RMK A01 T00541049  RH  048%=      5-min Rain = 0
KREE 211255Z 16008KT 05/M05 A2981 RMK A01 T00531049  RH  048%=      5-min Rain = 0
KREE 211300Z 16006KT 05/M05 A2981 RMK A01 T00511050  RH  049%=      5-min Rain = 0
KREE 211305Z 16006KT 05/M05 A2981 RMK A01 T00481050  RH  050%=      5-min Rain = 0
KREE 211310Z 16006KT 04/M05 A2982 RMK A01 T00441051  RH  051%=      5-min Rain = 0
KREE 211315Z 16006KT 04/M05 A2982 RMK A01 T00411051  RH  051%=      5-min Rain = 0
KREE 211320Z 16006KT 04/M05 A2982 RMK A01 T00391052  RH  052%=      5-min Rain = 0
KREE 211325Z 15007KT 04/M05 A2982 RMK A01 T00381051  RH  053%=      5-min Rain = 0
KREE 211330Z 16008KT 04/M05 A2982 RMK A01 T00391051  RH  052%=      5-min Rain = 0
KREE 211335Z 15009KT 04/M05 A2982 RMK A01 T00401050  RH  052%=      5-min Rain = 0
KREE 211340Z 14010KT 04/M05 A2981 RMK A01 T00441049  RH  051%=      5-min Rain = 0
KREE 211345Z 14010KT 05/M05 A2981 RMK A01 T00471049  RH  050%=      5-min Rain = 0
KREE 211350Z 14009KT 05/M05 A2982 RMK A01 T00471049  RH  050%=      5-min Rain = 0
KREE 211355Z 14010KT 05/M05 A2982 RMK A01 T00461049  RH  051%=      5-min Rain = 0
KREE 211400Z 14011KT 05/M05 A2982 RMK A01 T00461048  RH  051%=      5-min Rain = 0
KREE 211405Z 14012KT 05/M05 A2982 RMK A01 T00471047  RH  051%=      5-min Rain = 0
KREE 211410Z 14012KT 05/M05 A2981 RMK A01 T00501046  RH  050%=      5-min Rain = 0
KREE 211415Z 14012KT 05/M05 A2981 RMK A01 T00481047  RH  051%=      5-min Rain = 0
KREE 211420Z 14012KT 05/M05 A2981 RMK A01 T00481047  RH  051%=      5-min Rain = 0
KREE 211425Z 14011KT 05/M05 A2982 RMK A01 T00481047  RH  051%=      5-min Rain = 0
KREE 211430Z 15009KT 05/M05 A2983 RMK A01 T00501046  RH  050%=      5-min Rain = 0
KREE 211435Z 16008KT 05/M05 A2983 RMK A01 T00511046  RH  050%=      5-min Rain = 0
KREE 211440Z 16007KT 05/M05 A2984 RMK A01 T00521045  RH  050%=      5-min Rain = 0
KREE 211445Z 16008KT 05/M05 A2984 RMK A01 T00531045  RH  050%=      5-min Rain = 0
KREE 211450Z 16008KT 05/M04 A2984 RMK A01 T00541044  RH  050%=      5-min Rain = 0
KREE 211455Z 16008KT 06/M04 A2984 RMK A01 T00581041  RH  049%=      5-min Rain = 0
KREE 211500Z 16011KT 06/M04 A2984 RMK A01 T00631039  RH  048%=      5-min Rain = 0
KREE 211505Z 15013KT 07/M04 A2983 RMK A01 T00661038  RH  048%=      5-min Rain = 0
KREE 211510Z 16015KT 07/M04 A2983 RMK A01 T00681037  RH  048%=      5-min Rain = 0
KREE 211515Z 15016KT 07/M04 A2983 RMK A01 T00701036  RH  047%=      5-min Rain = 0
KREE 211520Z 15016G22KT 07/M04 A2983 RMK A01 T00701036  RH  047%=      5-min Rain = 0
KREE 211525Z 16017KT 07/M04 A2983 RMK A01 T00711035  RH  047%=      5-min Rain = 0
KREE 211530Z 15017KT 07/M04 A2983 RMK A01 T00721035  RH  047%=      5-min Rain = 0
KREE 211535Z 15019KT 07/M04 A2982 RMK A01 T00711035  RH  047%=      5-min Rain = 0
KREE 211540Z 16019KT 07/M03 A2983 RMK A01 T00731034  RH  047%=      5-min Rain = 0
KREE 211545Z 16017G23KT 08/M03 A2984 RMK A01 T00771032  RH  046%=      5-min Rain = 0
KREE 211550Z 18015G20KT 08/M03 A2985 RMK A01 T00811031  RH  045%=      5-min Rain = 0
KREE 211555Z 17015KT 09/M03 A2985 RMK A01 T00861031  RH  044%=      5-min Rain = 0
KREE 211600Z 17016KT 09/M03 A2985 RMK A01 T00851031  RH  044%=      5-min Rain = 0
KREE 211605Z 17016G21KT 09/M03 A2985 RMK A01 T00851030  RH  045%=      5-min Rain = 0
KREE 211610Z 16018KT 08/M03 A2984 RMK A01 T00841031  RH  045%=      5-min Rain = 0
KREE 211615Z 17019KT 08/M03 A2984 RMK A01 T00841030  RH  045%=      5-min Rain = 0
KREE 211620Z 17019G25KT 09/M03 A2984 RMK A01 T00871030  RH  044%=      5-min Rain = 0
KREE 211625Z 17019G24KT 09/M03 A2984 RMK A01 T00901029  RH  044%=      5-min Rain = 0
KREE 211630Z 16019G24KT 09/M03 A2983 RMK A01 T00911029  RH  043%=      5-min Rain = 0
KREE 211635Z 17018G23KT 09/M03 A2983 RMK A01 T00921028  RH  043%=      5-min Rain = 0
KREE 211640Z 17017KT 10/M03 A2983 RMK A01 T00971026  RH  042%=      5-min Rain = 0
KREE 211645Z 17019KT 10/M03 A2983 RMK A01 T01001026  RH  042%=      5-min Rain = 0
KREE 211650Z 16017G22KT 10/M02 A2983 RMK A01 T01031024  RH  041%=      5-min Rain = 0
KREE 211655Z 16019KT 11/M02 A2983 RMK A01 T01091023  RH  040%=      5-min Rain = 0
KREE 211700Z 16019KT 11/M02 A2983 RMK A01 T01111023  RH  039%=      5-min Rain = 0
KREE 211705Z 17019G25KT 11/M02 A2983 RMK A01 T01141021  RH  039%=      5-min Rain = 0
KREE 211710Z 18020G26KT 11/M02 A2984 RMK A01 T01131023  RH  039%=      5-min Rain = 0
KREE 211715Z 18021KT 11/M02 A2984 RMK A01 T01111024  RH  039%=      5-min Rain = 0
KREE 211720Z 17020KT 12/M02 A2984 RMK A01 T01161021  RH  039%=      5-min Rain = 0
KREE 211725Z 17019KT 12/M02 A2983 RMK A01 T01191021  RH  038%=      5-min Rain = 0
KREE 211730Z 17019G24KT 12/M02 A2983 RMK A01 T01231019  RH  038%=      5-min Rain = 0
KREE 211735Z 17019G24KT 12/M02 A2983 RMK A01 T01241019  RH  037%=      5-min Rain = 0
KREE 211740Z 17018G23KT 13/M02 A2983 RMK A01 T01251018  RH  037%=      5-min Rain = 0
KREE 211745Z 17016G21KT 13/M02 A2983 RMK A01 T01291017  RH  037%=      5-min Rain = 0
KREE 211750Z 17019G25KT 13/M02 A2983 RMK A01 T01291017  RH  037%=      5-min Rain = 0
KREE 211755Z 16019KT 13/M02 A2982 RMK A01 T01301018  RH  036%=      5-min Rain = 0
KREE 211800Z 16019KT 13/M02 A2982 RMK A01 T01331017  RH  036%=      5-min Rain = 0
KREE 211805Z 17019G24KT 13/M02 A2982 RMK A01 T01331017  RH  036%=      5-min Rain = 0
KREE 211810Z 17019G24KT 14/M02 A2982 RMK A01 T01351016  RH  035%=      5-min Rain = 0
KREE 211815Z 17018G23KT 14/M02 A2982 RMK A01 T01381016  RH  035%=      5-min Rain = 0
KREE 211820Z 15018G24KT 14/M02 A2982 RMK A01 T01411016  RH  034%=      5-min Rain = 0
KREE 211825Z 17017KT 14/M02 A2982 RMK A01 T01431015  RH  034%=      5-min Rain = 0
KREE 211830Z 16016G21KT 14/M02 A2982 RMK A01 T01431016  RH  034%=      5-min Rain = 0
KREE 211835Z 16016KT 15/M01 A2981 RMK A01 T01471013  RH  034%=      5-min Rain = 0
KREE 211840Z 16015G20KT 15/M02 A2981 RMK A01 T01491015  RH  033%=      5-min Rain = 0
KREE 211845Z 16016G22KT 15/M02 A298 RMK A01 T01491016  RH  032%=      5-min Rain = 0
KREE 211850Z 17015G20KT 15/M01 A298 RMK A01 T01531014  RH  032%=      5-min Rain = 0
KREE 211855Z 16017G24KT 15/M02 A298 RMK A01 T01511017  RH  032%=      5-min Rain = 0
KREE 211900Z 16015KT 15/M02 A298 RMK A01 T01521017  RH  032%=      5-min Rain = 0
KREE 211905Z 18016G23KT 15/M02 A298 RMK A01 T01521019  RH  031%=      5-min Rain = 0
KREE 211910Z 16015KT 15/M02 A298 RMK A01 T01521018  RH  031%=      5-min Rain = 0
KREE 211915Z 15015KT 16/M02 A2979 RMK A01 T01561018  RH  031%=      5-min Rain = 0
KREE 211920Z 17015KT 16/M02 A2979 RMK A01 T01571017  RH  031%=      5-min Rain = 0
KREE 211925Z 16017G23KT 16/M02 A2979 RMK A01 T01561019  RH  030%=      5-min Rain = 0
KREE 211930Z 15016G21KT 16/M02 A2978 RMK A01 T01591019  RH  030%=      5-min Rain = 0
KREE 211935Z 15019G26KT 16/M02 A2978 RMK A01 T01621019  RH  029%=      5-min Rain = 0
KREE 211940Z 16016G22KT 16/M02 A2978 RMK A01 T01601022  RH  029%=      5-min Rain = 0
KREE 211945Z 16016KT 16/M02 A2977 RMK A01 T01621021  RH  029%=      5-min Rain = 0
KREE 211950Z 17016G22KT 16/M02 A2977 RMK A01 T01621022  RH  029%=      5-min Rain = 0
KREE 211955Z 16014G19KT 16/M02 A2977 RMK A01 T01621022  RH  029%=      5-min Rain = 0
KREE 212000Z 17017KT 16/M02 A2977 RMK A01 T01641022  RH  028%=      5-min Rain = 0
KREE 212005Z 15018KT 17/M02 A2976 RMK A01 T01651021  RH  028%=      5-min Rain = 0
KREE 212010Z 16017G22KT 17/M02 A2976 RMK A01 T01661020  RH  028%=      5-min Rain = 0
KREE 212015Z 17016G21KT 17/M02 A2976 RMK A01 T01681024  RH  027%=      5-min Rain = 0
KREE 212020Z 16018KT 17/M02 A2976 RMK A01 T01651020  RH  028%=      5-min Rain = 0
KREE 212025Z 16016G23KT 17/M02 A2976 RMK A01 T01661018  RH  029%=      5-min Rain = 0
KREE 212030Z 14018G24KT 17/M02 A2975 RMK A01 T01681018  RH  028%=      5-min Rain = 0
KREE 212035Z 17019G26KT 17/M02 A2975 RMK A01 T01661019  RH  028%=      5-min Rain = 0
KREE 212040Z 15019G26KT 17/M02 A2975 RMK A01 T01691018  RH  028%=      5-min Rain = 0
KREE 212045Z 14019G24KT 17/M02 A2975 RMK A01 T01681020  RH  028%=      5-min Rain = 0
KREE 212050Z 15020G25KT 17/M02 A2974 RMK A01 T01681020  RH  028%=      5-min Rain = 0
KREE 212055Z 15018KT 17/M02 A2975 RMK A01 T01681021  RH  028%=      5-min Rain = 0
KREE 212100Z 16017G22KT 17/M02 A2975 RMK A01 T01691019  RH  028%=      5-min Rain = 0
KREE 212105Z 14017G23KT 17/M02 A2975 RMK A01 T01701019  RH  028%=      5-min Rain = 0
KREE 212110Z 15017G22KT 17/M02 A2974 RMK A01 T01721018  RH  028%=      5-min Rain = 0
KREE 212115Z 16017G22KT 17/M02 A2974 RMK A01 T01691020  RH  028%=      5-min Rain = 0
KREE 212120Z 15014G21KT 17/M02 A2974 RMK A01 T01691015  RH  029%=      5-min Rain = 0
KREE 212125Z 16015KT 17/M02 A2974 RMK A01 T01721020  RH  027%=      5-min Rain = 0
KREE 212130Z 15018G23KT 17/M02 A2974 RMK A01 T01701015  RH  028%=      5-min Rain = 0
KREE 212135Z 15017G24KT 17/M01 A2974 RMK A01 T01711013  RH  029%=      5-min Rain = 0
KREE 212140Z 15016KT 17/M01 A2974 RMK A01 T01701012  RH  029%=      5-min Rain = 0
KREE 212145Z 14018KT 17/M01 A2974 RMK A01 T01701012  RH  029%=      5-min Rain = 0
KREE 212150Z 14017G23KT 17/M01 A2974 RMK A01 T01731010  RH  029%=      5-min Rain = 0
KREE 212155Z 14018G25KT 17/M01 A2974 RMK A01 T01701011  RH  029%=      5-min Rain = 0
KREE 212200Z 15018G23KT 17/M01 A2974 RMK A01 T01711012  RH  029%=      5-min Rain = 0
KREE 212205Z 14018G23KT 17/M01 A2974 RMK A01 T01681012  RH  030%=      5-min Rain = 0
KREE 212210Z 14018G23KT 17/M01 A2974 RMK A01 T01691011  RH  030%=      5-min Rain = 0
KREE 212215Z 15017G23KT 17/M01 A2974 RMK A01 T01681012  RH  030%=      5-min Rain = 0
KREE 212220Z 15018G24KT 17/M01 A2974 RMK A01 T01691011  RH  030%=      5-min Rain = 0
KREE 212225Z 14018KT 17/M01 A2974 RMK A01 T01671011  RH  030%=      5-min Rain = 0
KREE 212230Z 14018G23KT 17/M01 A2974 RMK A01 T01651012  RH  030%=      5-min Rain = 0
KREE 212235Z 14018G26KT 17/M01 A2974 RMK A01 T01651011  RH  030%=      5-min Rain = 0
KREE 212240Z 13018G24KT 16/M01 A2974 RMK A01 T01641012  RH  030%=      5-min Rain = 0
KREE 212245Z 15020G25KT 17/M01 A2974 RMK A01 T01651012  RH  030%=      5-min Rain = 0
KREE 212250Z 14020G25KT 16/M01 A2974 RMK A01 T01621010  RH  031%=      5-min Rain = 0
KREE 212255Z 14019G25KT 16/M01 A2974 RMK A01 T01611008  RH  032%=      5-min Rain = 0
KREE 212300Z 13019G25KT 16/M01 A2974 RMK A01 T01601006  RH  033%=      5-min Rain = 0
KREE 212305Z 13021KT 16/M00 A2974 RMK A01 T01561004  RH  034%=      5-min Rain = 0
KREE 212310Z 12020G26KT 16/M00 A2974 RMK A01 T01561003  RH  034%=      5-min Rain = 0
KREE 212315Z 13020G26KT 16/M00 A2974 RMK A01 T01571003  RH  034%=      5-min Rain = 0
KREE 212320Z 14020G26KT 15/M00 A2975 RMK A01 T01541002  RH  035%=      5-min Rain = 0
KREE 212325Z 12021G27KT 15/M00 A2974 RMK A01 T01491001  RH  036%=      5-min Rain = 0
KREE 212330Z 12020G26KT 15/00 A2974 RMK A01 T01460000  RH  037%=      5-min Rain = 0
KREE 212335Z 13019G26KT 15/00 A2975 RMK A01 T01460001  RH  037%=      5-min Rain = 0
KREE 212340Z 13021KT 14/00 A2975 RMK A01 T01440000  RH  038%=      5-min Rain = 0
KREE 212345Z 13021G27KT 14/00 A2975 RMK A01 T01410001  RH  039%=      5-min Rain = 0
KREE 212350Z 13018G23KT 14/00 A2975 RMK A01 T01400001  RH  039%=      5-min Rain = 0
KREE 212355Z 13022G28KT 14/00 A2976 RMK A01 T01370001  RH  040%=      5-min Rain = 0
KREE 220000Z 13021G26KT 14/00 A2976 RMK A01 T01350001  RH  040%=      5-min Rain = 0
KREE 220005Z 13022G27KT 13/00 A2976 RMK A01 T01330001  RH  041%=      5-min Rain = 0
KREE 220010Z 13020G25KT 13/00 A2976 RMK A01 T01320001  RH  041%=      5-min Rain = 0
KREE 220015Z 13019G24KT 13/00 A2976 RMK A01 T01300001  RH  042%=      5-min Rain = 0
KREE 220020Z 13018G25KT 13/00 A2977 RMK A01 T01270001  RH  042%=      5-min Rain = 0
KREE 220025Z 13018KT 13/00 A2977 RMK A01 T01250001  RH  043%=      5-min Rain = 0
KREE 220030Z 13019G24KT 12/00 A2977 RMK A01 T01240001  RH  043%=      5-min Rain = 0
KREE 220035Z 13018G23KT 12/00 A2977 RMK A01 T01220001  RH  044%=      5-min Rain = 0
KREE 220040Z 13017G23KT 12/00 A2978 RMK A01 T01200001  RH  044%=      5-min Rain = 0
KREE 220045Z 13019KT 12/00 A2978 RMK A01 T01190001  RH  045%=      5-min Rain = 0
KREE 220050Z 13017KT 12/00 A2978 RMK A01 T01170001  RH  045%=      5-min Rain = 0
KREE 220055Z 13016G23KT 12/00 A2978 RMK A01 T01150001  RH  046%=      5-min Rain = 0
KREE 220100Z 13018G23KT 11/00 A2978 RMK A01 T01140001  RH  046%=      5-min Rain = 0
KREE 220105Z 13020G25KT 11/00 A2978 RMK A01 T01140001  RH  046%=      5-min Rain = 0
KREE 220110Z 13018G24KT 11/00 A2979 RMK A01 T01110001  RH  047%=      5-min Rain = 0
KREE 220115Z 13019G24KT 11/00 A2979 RMK A01 T01100000  RH  047%=      5-min Rain = 0
KREE 220120Z 13018G23KT 11/M00 A2979 RMK A01 T01091001  RH  047%=      5-min Rain = 0
KREE 220125Z 13020G25KT 11/M00 A2979 RMK A01 T01091002  RH  047%=      5-min Rain = 0
KREE 220130Z 13018G23KT 11/M00 A298 RMK A01 T01061003  RH  047%=      5-min Rain = 0
KREE 220135Z 13017G22KT 10/M01 A298 RMK A01 T01041005  RH  047%=      5-min Rain = 0
KREE 220140Z 13019KT 10/M01 A298 RMK A01 T01041006  RH  047%=      5-min Rain = 0
KREE 220145Z 13018G23KT 10/M01 A298 RMK A01 T01041006  RH  047%=      5-min Rain = 0
KREE 220150Z 13018KT 10/M01 A2981 RMK A01 T01021008  RH  047%=      5-min Rain = 0
KREE 220155Z 13020G25KT 10/M01 A298 RMK A01 T01001010  RH  047%=      5-min Rain = 0
KREE 220200Z 13018KT 10/M01 A298 RMK A01 T00991011  RH  047%=      5-min Rain = 0
KREE 220205Z 13017G22KT 10/M01 A2981 RMK A01 T00961013  RH  047%=      5-min Rain = 0
KREE 220210Z 13019G25KT 09/M02 A2981 RMK A01 T00941015  RH  047%=      5-min Rain = 0
KREE 220215Z 13018KT 09/M02 A2981 RMK A01 T00931016  RH  047%=      5-min Rain = 0
KREE 220220Z 13018KT 09/M02 A2981 RMK A01 T00921018  RH  047%=      5-min Rain = 0
KREE 220225Z 13016G21KT 09/M02 A2981 RMK A01 T00891019  RH  047%=      5-min Rain = 0
KREE 220230Z 13018KT 09/M02 A2981 RMK A01 T00881020  RH  047%=      5-min Rain = 0
KREE 220235Z 13017KT 09/M02 A2982 RMK A01 T00871021  RH  047%=      5-min Rain = 0
KREE 220240Z 13019G26KT 09/M02 A2982 RMK A01 T00861022  RH  047%=      5-min Rain = 0
KREE 220245Z 13020G25KT 09/M02 A2982 RMK A01 T00861023  RH  047%=      5-min Rain = 0
KREE 220250Z 13018G23KT 09/M02 A2982 RMK A01 T00851024  RH  047%=      5-min Rain = 0
KREE 220255Z 13020G25KT 09/M03 A2982 RMK A01 T00851025  RH  046%=      5-min Rain = 0
KREE 220300Z 13021G27KT 08/M03 A2982 RMK A01 T00841026  RH  046%=      5-min Rain = 0
KREE 220305Z 13020G25KT 08/M03 A2982 RMK A01 T00821027  RH  047%=      5-min Rain = 0
KREE 220310Z 13020KT 08/M03 A2982 RMK A01 T00811027  RH  047%=      5-min Rain = 0
KREE 220315Z 13020KT 08/M03 A2982 RMK A01 T00811028  RH  047%=      5-min Rain = 0
KREE 220320Z 13018G24KT 08/M03 A2983 RMK A01 T00791029  RH  047%=      5-min Rain = 0
KREE 220325Z 13016G21KT 08/M03 A2983 RMK A01 T00771029  RH  048%=      5-min Rain = 0
KREE 220330Z 13017G22KT 08/M03 A2983 RMK A01 T00761030  RH  047%=      5-min Rain = 0
KREE 220335Z 13016KT 08/M03 A2984 RMK A01 T00761031  RH  047%=      5-min Rain = 0
KREE 220340Z 13014KT 07/M03 A2984 RMK A01 T00741031  RH  048%=      5-min Rain = 0
KREE 220345Z 12014KT 07/M03 A2984 RMK A01 T00711032  RH  048%=      5-min Rain = 0
KREE 220350Z 13015KT 07/M03 A2984 RMK A01 T00711034  RH  048%=      5-min Rain = 0
KREE 220355Z 13015KT 07/M04 A2984 RMK A01 T00701035  RH  048%=      5-min Rain = 0
KREE 220400Z 12016KT 07/M04 A2984 RMK A01 T00691037  RH  048%=      5-min Rain = 0
KREE 220405Z 12017KT 07/M04 A2984 RMK A01 T00671041  RH  047%=      5-min Rain = 0
KREE 220410Z 12017G22KT 07/M04 A2984 RMK A01 T00651044  RH  046%=      5-min Rain = 0
KREE 220415Z 12015KT 06/M05 A2984 RMK A01 T00631046  RH  046%=      5-min Rain = 0
KREE 220420Z 12015G21KT 06/M05 A2984 RMK A01 T00631048  RH  045%=      5-min Rain = 0
KREE 220425Z 12017G24KT 06/M05 A2984 RMK A01 T00631050  RH  045%=      5-min Rain = 0
KREE 220430Z 12016KT 06/M05 A2984 RMK A01 T00621051  RH  045%=      5-min Rain = 0
KREE 220435Z 12016KT 06/M05 A2984 RMK A01 T00601051  RH  045%=      5-min Rain = 0
KREE 220440Z 12016G21KT 06/M05 A2985 RMK A01 T00591052  RH  045%=      5-min Rain = 0
KREE 220445Z 12017KT 06/M05 A2985 RMK A01 T00581052  RH  046%=      5-min Rain = 0
KREE 220450Z 12017G23KT 06/M05 A2985 RMK A01 T00571053  RH  046%=      5-min Rain = 0
KREE 220455Z 13016G22KT 06/M05 A2985 RMK A01 T00551053  RH  046%=      5-min Rain = 0
KREE 220500Z 12016KT 05/M05 A2985 RMK A01 T00531053  RH  047%=      5-min Rain = 0
KREE 220505Z 13014KT 05/M05 A2985 RMK A01 T00511053  RH  048%=      5-min Rain = 0
KREE 220510Z 13013KT 05/M05 A2985 RMK A01 T00501053  RH  048%=      5-min Rain = 0
KREE 220515Z 13014KT 05/M05 A2985 RMK A01 T00491052  RH  048%=      5-min Rain = 0
KREE 220520Z 13015KT 05/M05 A2985 RMK A01 T00491053  RH  048%=      5-min Rain = 0
KREE 220525Z 13014G19KT 05/M05 A2985 RMK A01 T00471053  RH  049%=      5-min Rain = 0
KREE 220530Z 13015KT 05/M05 A2985 RMK A01 T00461051  RH  050%=      5-min Rain = 0
KREE 220535Z 14015KT 05/M05 A2985 RMK A01 T00451050  RH  051%=      5-min Rain = 0
KREE 220540Z 13016KT 05/M05 A2985 RMK A01 T00451050  RH  051%=      5-min Rain = 0
KREE 220545Z 13014KT 04/M05 A2985 RMK A01 T00431052  RH  051%=      5-min Rain = 0
KREE 220550Z 13014G19KT 04/M05 A2985 RMK A01 T00421051  RH  051%=      5-min Rain = 0
KREE 220555Z 13014KT 04/M05 A2985 RMK A01 T00411052  RH  051%=      5-min Rain = 0

Page generated in 0.0095 seconds.